sensor_id;sensor_type;location;lat;lon;timestamp;P1;durP1;ratioP1;P2;durP2;ratioP2
72895;SDS011;61036;53.224;6.554;2023-03-01T00:00:41;20.80;;;14.07;;
72895;SDS011;61036;53.224;6.554;2023-03-01T00:03:11;18.97;;;14.57;;
72895;SDS011;61036;53.224;6.554;2023-03-01T00:05:43;19.50;;;13.97;;
72895;SDS011;61036;53.224;6.554;2023-03-01T00:08:12;17.87;;;13.57;;
72895;SDS011;61036;53.224;6.554;2023-03-01T00:10:37;18.43;;;13.67;;
72895;SDS011;61036;53.224;6.554;2023-03-01T00:13:03;17.53;;;13.27;;
72895;SDS011;61036;53.224;6.554;2023-03-01T00:15:30;22.90;;;14.93;;
72895;SDS011;61036;53.224;6.554;2023-03-01T00:17:57;22.83;;;14.70;;
72895;SDS011;61036;53.224;6.554;2023-03-01T00:20:23;17.77;;;13.27;;
72895;SDS011;61036;53.224;6.554;2023-03-01T00:22:48;21.10;;;14.47;;
72895;SDS011;61036;53.224;6.554;2023-03-01T00:25:14;20.90;;;14.53;;
72895;SDS011;61036;53.224;6.554;2023-03-01T00:27:42;20.47;;;15.10;;
72895;SDS011;61036;53.224;6.554;2023-03-01T00:30:08;20.30;;;14.47;;
72895;SDS011;61036;53.224;6.554;2023-03-01T00:32:33;18.73;;;14.30;;
72895;SDS011;61036;53.224;6.554;2023-03-01T00:34:59;21.50;;;14.00;;
72895;SDS011;61036;53.224;6.554;2023-03-01T00:37:25;20.10;;;14.37;;
72895;SDS011;61036;53.224;6.554;2023-03-01T00:39:50;20.80;;;14.00;;
72895;SDS011;61036;53.224;6.554;2023-03-01T00:42:16;20.73;;;14.83;;
72895;SDS011;61036;53.224;6.554;2023-03-01T00:44:42;20.67;;;14.47;;
72895;SDS011;61036;53.224;6.554;2023-03-01T00:47:08;20.33;;;14.37;;
72895;SDS011;61036;53.224;6.554;2023-03-01T00:49:34;22.30;;;13.37;;
72895;SDS011;61036;53.224;6.554;2023-03-01T00:52:00;20.33;;;14.60;;
72895;SDS011;61036;53.224;6.554;2023-03-01T00:54:25;19.07;;;13.80;;
72895;SDS011;61036;53.224;6.554;2023-03-01T00:56:51;21.60;;;14.50;;
72895;SDS011;61036;53.224;6.554;2023-03-01T00:59:16;20.83;;;14.07;;
72895;SDS011;61036;53.224;6.554;2023-03-01T01:01:42;22.43;;;16.17;;
72895;SDS011;61036;53.224;6.554;2023-03-01T01:04:08;24.37;;;16.23;;
72895;SDS011;61036;53.224;6.554;2023-03-01T01:06:39;19.93;;;14.80;;
72895;SDS011;61036;53.224;6.554;2023-03-01T01:09:13;23.50;;;14.50;;
72895;SDS011;61036;53.224;6.554;2023-03-01T01:11:47;25.93;;;15.60;;
72895;SDS011;61036;53.224;6.554;2023-03-01T01:14:14;21.70;;;15.77;;
72895;SDS011;61036;53.224;6.554;2023-03-01T01:16:41;23.07;;;15.87;;
72895;SDS011;61036;53.224;6.554;2023-03-01T01:19:06;24.20;;;16.10;;
72895;SDS011;61036;53.224;6.554;2023-03-01T01:21:32;23.63;;;16.20;;
72895;SDS011;61036;53.224;6.554;2023-03-01T01:23:58;23.77;;;16.60;;
72895;SDS011;61036;53.224;6.554;2023-03-01T01:26:28;26.33;;;16.60;;
72895;SDS011;61036;53.224;6.554;2023-03-01T01:28:54;26.00;;;18.53;;
72895;SDS011;61036;53.224;6.554;2023-03-01T01:31:21;27.93;;;18.17;;
72895;SDS011;61036;53.224;6.554;2023-03-01T01:33:51;27.57;;;17.53;;
72895;SDS011;61036;53.224;6.554;2023-03-01T01:36:17;26.37;;;18.00;;
72895;SDS011;61036;53.224;6.554;2023-03-01T01:38:43;25.20;;;17.10;;
72895;SDS011;61036;53.224;6.554;2023-03-01T01:41:09;23.23;;;16.30;;
72895;SDS011;61036;53.224;6.554;2023-03-01T01:43:43;25.47;;;18.10;;
72895;SDS011;61036;53.224;6.554;2023-03-01T01:46:14;27.40;;;18.17;;
72895;SDS011;61036;53.224;6.554;2023-03-01T01:48:47;26.57;;;17.43;;
72895;SDS011;61036;53.224;6.554;2023-03-01T01:51:20;25.47;;;16.67;;
72895;SDS011;61036;53.224;6.554;2023-03-01T01:53:51;24.90;;;17.77;;
72895;SDS011;61036;53.224;6.554;2023-03-01T01:56:22;25.37;;;17.17;;
72895;SDS011;61036;53.224;6.554;2023-03-01T01:58:49;24.77;;;16.23;;
72895;SDS011;61036;53.224;6.554;2023-03-01T02:01:16;27.30;;;18.07;;
72895;SDS011;61036;53.224;6.554;2023-03-01T02:03:42;29.13;;;17.63;;
72895;SDS011;61036;53.224;6.554;2023-03-01T02:09:07;26.57;;;17.50;;
72895;SDS011;61036;53.224;6.554;2023-03-01T02:11:37;26.23;;;16.90;;
72895;SDS011;61036;53.224;6.554;2023-03-01T02:14:03;27.63;;;18.10;;
72895;SDS011;61036;53.224;6.554;2023-03-01T02:16:32;25.73;;;17.30;;
72895;SDS011;61036;53.224;6.554;2023-03-01T02:18:58;25.47;;;17.93;;
72895;SDS011;61036;53.224;6.554;2023-03-01T02:24:24;24.73;;;16.33;;
72895;SDS011;61036;53.224;6.554;2023-03-01T02:26:51;24.03;;;15.87;;
72895;SDS011;61036;53.224;6.554;2023-03-01T02:29:22;22.87;;;15.67;;
72895;SDS011;61036;53.224;6.554;2023-03-01T02:31:49;23.67;;;16.20;;
72895;SDS011;61036;53.224;6.554;2023-03-01T02:34:20;22.17;;;15.77;;
72895;SDS011;61036;53.224;6.554;2023-03-01T02:36:53;23.60;;;15.13;;
72895;SDS011;61036;53.224;6.554;2023-03-01T02:39:26;23.27;;;15.20;;
72895;SDS011;61036;53.224;6.554;2023-03-01T02:42:07;20.70;;;14.70;;
72895;SDS011;61036;53.224;6.554;2023-03-01T02:44:38;23.77;;;15.03;;
72895;SDS011;61036;53.224;6.554;2023-03-01T02:47:04;20.83;;;15.23;;
72895;SDS011;61036;53.224;6.554;2023-03-01T02:49:32;22.47;;;15.73;;
72895;SDS011;61036;53.224;6.554;2023-03-01T02:54:58;24.17;;;15.93;;
72895;SDS011;61036;53.224;6.554;2023-03-01T02:57:28;25.83;;;15.90;;
72895;SDS011;61036;53.224;6.554;2023-03-01T02:59:55;22.97;;;15.43;;
72895;SDS011;61036;53.224;6.554;2023-03-01T03:02:26;22.77;;;15.07;;
72895;SDS011;61036;53.224;6.554;2023-03-01T03:05:11;23.03;;;14.87;;
72895;SDS011;61036;53.224;6.554;2023-03-01T03:07:42;18.67;;;13.97;;
72895;SDS011;61036;53.224;6.554;2023-03-01T03:10:13;20.63;;;13.40;;
72895;SDS011;61036;53.224;6.554;2023-03-01T03:12:48;20.97;;;13.67;;
72895;SDS011;61036;53.224;6.554;2023-03-01T03:15:14;20.97;;;14.20;;
72895;SDS011;61036;53.224;6.554;2023-03-01T03:17:43;23.80;;;13.83;;
72895;SDS011;61036;53.224;6.554;2023-03-01T03:20:10;19.57;;;13.93;;
72895;SDS011;61036;53.224;6.554;2023-03-01T03:22:40;18.87;;;13.60;;
72895;SDS011;61036;53.224;6.554;2023-03-01T03:25:06;18.50;;;13.20;;
72895;SDS011;61036;53.224;6.554;2023-03-01T03:27:36;16.97;;;12.00;;
72895;SDS011;61036;53.224;6.554;2023-03-01T03:30:04;20.00;;;13.13;;
72895;SDS011;61036;53.224;6.554;2023-03-01T03:32:35;20.00;;;12.47;;
72895;SDS011;61036;53.224;6.554;2023-03-01T03:35:02;17.70;;;12.10;;
72895;SDS011;61036;53.224;6.554;2023-03-01T03:37:40;20.63;;;12.30;;
72895;SDS011;61036;53.224;6.554;2023-03-01T03:40:25;19.70;;;13.40;;
72895;SDS011;61036;53.224;6.554;2023-03-01T03:42:51;17.97;;;12.93;;
72895;SDS011;61036;53.224;6.554;2023-03-01T03:45:17;17.73;;;12.83;;
72895;SDS011;61036;53.224;6.554;2023-03-01T03:47:45;17.13;;;12.73;;
72895;SDS011;61036;53.224;6.554;2023-03-01T03:50:13;18.97;;;13.33;;
72895;SDS011;61036;53.224;6.554;2023-03-01T03:52:41;17.77;;;12.67;;
72895;SDS011;61036;53.224;6.554;2023-03-01T03:55:07;18.40;;;12.07;;
72895;SDS011;61036;53.224;6.554;2023-03-01T03:57:34;18.77;;;13.27;;
72895;SDS011;61036;53.224;6.554;2023-03-01T04:00:00;16.93;;;12.60;;
72895;SDS011;61036;53.224;6.554;2023-03-01T04:02:37;17.60;;;12.33;;
72895;SDS011;61036;53.224;6.554;2023-03-01T04:05:06;18.53;;;12.83;;
72895;SDS011;61036;53.224;6.554;2023-03-01T04:07:34;18.00;;;12.37;;
72895;SDS011;61036;53.224;6.554;2023-03-01T04:10:00;18.60;;;12.43;;
72895;SDS011;61036;53.224;6.554;2023-03-01T04:12:28;15.90;;;11.47;;
72895;SDS011;61036;53.224;6.554;2023-03-01T04:14:53;16.47;;;10.93;;
72895;SDS011;61036;53.224;6.554;2023-03-01T04:17:19;16.07;;;11.73;;
72895;SDS011;61036;53.224;6.554;2023-03-01T04:19:44;15.83;;;10.80;;
72895;SDS011;61036;53.224;6.554;2023-03-01T04:22:14;13.93;;;10.13;;
72895;SDS011;61036;53.224;6.554;2023-03-01T04:24:42;13.53;;;10.17;;
72895;SDS011;61036;53.224;6.554;2023-03-01T04:27:08;15.63;;;10.87;;
72895;SDS011;61036;53.224;6.554;2023-03-01T04:29:34;17.03;;;11.27;;
72895;SDS011;61036;53.224;6.554;2023-03-01T04:32:00;15.17;;;9.53;;
72895;SDS011;61036;53.224;6.554;2023-03-01T04:34:25;12.00;;;8.73;;
72895;SDS011;61036;53.224;6.554;2023-03-01T04:36:53;13.40;;;9.23;;
72895;SDS011;61036;53.224;6.554;2023-03-01T04:39:19;12.10;;;8.87;;
72895;SDS011;61036;53.224;6.554;2023-03-01T04:41:44;10.90;;;7.80;;
72895;SDS011;61036;53.224;6.554;2023-03-01T04:44:10;11.27;;;8.17;;
72895;SDS011;61036;53.224;6.554;2023-03-01T04:46:36;10.97;;;7.43;;
72895;SDS011;61036;53.224;6.554;2023-03-01T04:49:02;10.97;;;7.80;;
72895;SDS011;61036;53.224;6.554;2023-03-01T04:51:28;9.50;;;7.30;;
72895;SDS011;61036;53.224;6.554;2023-03-01T04:53:54;8.00;;;6.13;;
72895;SDS011;61036;53.224;6.554;2023-03-01T04:56:20;8.40;;;6.87;;
72895;SDS011;61036;53.224;6.554;2023-03-01T04:58:48;9.97;;;7.07;;
72895;SDS011;61036;53.224;6.554;2023-03-01T05:01:18;9.20;;;6.53;;
72895;SDS011;61036;53.224;6.554;2023-03-01T05:03:46;8.57;;;6.30;;
72895;SDS011;61036;53.224;6.554;2023-03-01T05:06:14;7.50;;;6.13;;
72895;SDS011;61036;53.224;6.554;2023-03-01T05:08:43;8.57;;;6.83;;
72895;SDS011;61036;53.224;6.554;2023-03-01T05:11:09;8.27;;;6.27;;
72895;SDS011;61036;53.224;6.554;2023-03-01T05:13:38;9.33;;;7.03;;
72895;SDS011;61036;53.224;6.554;2023-03-01T05:16:05;9.23;;;6.77;;
72895;SDS011;61036;53.224;6.554;2023-03-01T05:18:36;9.07;;;7.03;;
72895;SDS011;61036;53.224;6.554;2023-03-01T05:21:06;8.13;;;6.40;;
72895;SDS011;61036;53.224;6.554;2023-03-01T05:23:34;9.20;;;6.87;;
72895;SDS011;61036;53.224;6.554;2023-03-01T05:26:00;9.23;;;6.97;;
72895;SDS011;61036;53.224;6.554;2023-03-01T05:28:29;9.57;;;7.30;;
72895;SDS011;61036;53.224;6.554;2023-03-01T05:30:55;9.13;;;6.77;;
72895;SDS011;61036;53.224;6.554;2023-03-01T05:33:21;10.70;;;7.57;;
72895;SDS011;61036;53.224;6.554;2023-03-01T05:35:47;8.77;;;6.87;;
72895;SDS011;61036;53.224;6.554;2023-03-01T05:38:14;9.63;;;7.17;;
72895;SDS011;61036;53.224;6.554;2023-03-01T05:40:44;10.10;;;7.87;;
72895;SDS011;61036;53.224;6.554;2023-03-01T05:43:13;9.60;;;7.20;;
72895;SDS011;61036;53.224;6.554;2023-03-01T05:45:40;9.27;;;7.53;;
72895;SDS011;61036;53.224;6.554;2023-03-01T05:48:06;10.03;;;7.20;;
72895;SDS011;61036;53.224;6.554;2023-03-01T05:50:33;11.23;;;8.80;;
72895;SDS011;61036;53.224;6.554;2023-03-01T05:53:01;10.50;;;8.07;;
72895;SDS011;61036;53.224;6.554;2023-03-01T05:55:27;11.83;;;8.13;;
72895;SDS011;61036;53.224;6.554;2023-03-01T05:57:54;10.47;;;8.40;;
72895;SDS011;61036;53.224;6.554;2023-03-01T06:00:20;10.47;;;8.47;;
72895;SDS011;61036;53.224;6.554;2023-03-01T06:02:49;10.33;;;7.80;;
72895;SDS011;61036;53.224;6.554;2023-03-01T06:05:15;11.13;;;8.00;;
72895;SDS011;61036;53.224;6.554;2023-03-01T06:07:43;10.73;;;8.30;;
72895;SDS011;61036;53.224;6.554;2023-03-01T06:10:09;11.53;;;8.23;;
72895;SDS011;61036;53.224;6.554;2023-03-01T06:12:36;10.40;;;7.73;;
72895;SDS011;61036;53.224;6.554;2023-03-01T06:15:03;12.37;;;8.53;;
72895;SDS011;61036;53.224;6.554;2023-03-01T06:17:31;11.77;;;8.13;;
72895;SDS011;61036;53.224;6.554;2023-03-01T06:19:58;13.07;;;9.17;;
72895;SDS011;61036;53.224;6.554;2023-03-01T06:22:23;13.53;;;9.13;;
72895;SDS011;61036;53.224;6.554;2023-03-01T06:24:49;18.80;;;11.50;;
72895;SDS011;61036;53.224;6.554;2023-03-01T06:27:15;16.53;;;12.03;;
72895;SDS011;61036;53.224;6.554;2023-03-01T06:29:40;15.90;;;11.07;;
72895;SDS011;61036;53.224;6.554;2023-03-01T06:32:06;17.37;;;12.23;;
72895;SDS011;61036;53.224;6.554;2023-03-01T06:34:33;17.33;;;11.57;;
72895;SDS011;61036;53.224;6.554;2023-03-01T06:36:59;16.50;;;11.70;;
72895;SDS011;61036;53.224;6.554;2023-03-01T06:39:24;17.27;;;11.57;;
72895;SDS011;61036;53.224;6.554;2023-03-01T06:41:50;14.63;;;10.47;;
72895;SDS011;61036;53.224;6.554;2023-03-01T06:44:15;16.50;;;10.80;;
72895;SDS011;61036;53.224;6.554;2023-03-01T06:46:44;16.97;;;11.33;;
72895;SDS011;61036;53.224;6.554;2023-03-01T06:49:09;16.73;;;11.03;;
72895;SDS011;61036;53.224;6.554;2023-03-01T06:51:35;15.40;;;10.40;;
72895;SDS011;61036;53.224;6.554;2023-03-01T06:54:02;16.93;;;11.47;;
72895;SDS011;61036;53.224;6.554;2023-03-01T06:56:29;14.37;;;10.57;;
72895;SDS011;61036;53.224;6.554;2023-03-01T06:58:55;17.40;;;10.87;;
72895;SDS011;61036;53.224;6.554;2023-03-01T07:01:21;13.33;;;10.60;;
72895;SDS011;61036;53.224;6.554;2023-03-01T07:03:46;15.50;;;11.23;;
72895;SDS011;61036;53.224;6.554;2023-03-01T07:06:12;15.50;;;11.27;;
72895;SDS011;61036;53.224;6.554;2023-03-01T07:08:37;16.23;;;12.43;;
72895;SDS011;61036;53.224;6.554;2023-03-01T07:11:03;15.53;;;11.07;;
72895;SDS011;61036;53.224;6.554;2023-03-01T07:13:29;15.77;;;11.53;;
72895;SDS011;61036;53.224;6.554;2023-03-01T07:15:54;14.53;;;11.13;;
72895;SDS011;61036;53.224;6.554;2023-03-01T07:18:20;15.80;;;11.33;;
72895;SDS011;61036;53.224;6.554;2023-03-01T07:20:46;17.03;;;12.90;;
72895;SDS011;61036;53.224;6.554;2023-03-01T07:23:11;16.80;;;12.53;;
72895;SDS011;61036;53.224;6.554;2023-03-01T07:25:38;15.67;;;11.80;;
72895;SDS011;61036;53.224;6.554;2023-03-01T07:28:03;16.63;;;12.20;;
72895;SDS011;61036;53.224;6.554;2023-03-01T07:30:29;15.17;;;11.33;;
72895;SDS011;61036;53.224;6.554;2023-03-01T07:32:55;15.83;;;11.27;;
72895;SDS011;61036;53.224;6.554;2023-03-01T07:35:22;17.00;;;11.80;;
72895;SDS011;61036;53.224;6.554;2023-03-01T07:37:48;16.50;;;12.13;;
72895;SDS011;61036;53.224;6.554;2023-03-01T07:40:13;16.00;;;11.73;;
72895;SDS011;61036;53.224;6.554;2023-03-01T07:42:39;16.03;;;12.73;;
72895;SDS011;61036;53.224;6.554;2023-03-01T07:45:05;16.03;;;12.10;;
72895;SDS011;61036;53.224;6.554;2023-03-01T07:47:31;18.10;;;13.87;;
72895;SDS011;61036;53.224;6.554;2023-03-01T07:49:57;17.33;;;13.63;;
72895;SDS011;61036;53.224;6.554;2023-03-01T07:52:22;20.10;;;14.50;;
72895;SDS011;61036;53.224;6.554;2023-03-01T07:54:50;20.77;;;14.67;;
72895;SDS011;61036;53.224;6.554;2023-03-01T07:57:16;21.37;;;14.33;;
72895;SDS011;61036;53.224;6.554;2023-03-01T07:59:41;18.83;;;14.07;;
72895;SDS011;61036;53.224;6.554;2023-03-01T08:02:08;21.33;;;16.40;;
72895;SDS011;61036;53.224;6.554;2023-03-01T08:04:33;24.13;;;16.13;;
72895;SDS011;61036;53.224;6.554;2023-03-01T08:06:59;25.57;;;18.63;;
72895;SDS011;61036;53.224;6.554;2023-03-01T08:09:25;21.70;;;15.70;;
72895;SDS011;61036;53.224;6.554;2023-03-01T08:11:50;19.43;;;15.63;;
72895;SDS011;61036;53.224;6.554;2023-03-01T08:14:16;19.93;;;15.37;;
72895;SDS011;61036;53.224;6.554;2023-03-01T08:16:41;19.53;;;15.13;;
72895;SDS011;61036;53.224;6.554;2023-03-01T08:19:11;20.90;;;15.83;;
72895;SDS011;61036;53.224;6.554;2023-03-01T08:21:39;22.47;;;16.63;;
72895;SDS011;61036;53.224;6.554;2023-03-01T08:24:05;20.43;;;15.40;;
72895;SDS011;61036;53.224;6.554;2023-03-01T08:26:33;20.87;;;15.33;;
72895;SDS011;61036;53.224;6.554;2023-03-01T08:29:01;19.20;;;14.80;;
72895;SDS011;61036;53.224;6.554;2023-03-01T08:31:29;23.23;;;15.97;;
72895;SDS011;61036;53.224;6.554;2023-03-01T08:33:57;23.27;;;17.73;;
72895;SDS011;61036;53.224;6.554;2023-03-01T08:36:25;23.83;;;17.97;;
72895;SDS011;61036;53.224;6.554;2023-03-01T08:38:52;23.47;;;18.87;;
72895;SDS011;61036;53.224;6.554;2023-03-01T08:41:18;25.77;;;18.70;;
72895;SDS011;61036;53.224;6.554;2023-03-01T08:43:43;24.57;;;18.90;;
72895;SDS011;61036;53.224;6.554;2023-03-01T08:46:09;28.70;;;20.17;;
72895;SDS011;61036;53.224;6.554;2023-03-01T08:48:35;23.53;;;18.23;;
72895;SDS011;61036;53.224;6.554;2023-03-01T08:51:11;30.30;;;22.47;;
72895;SDS011;61036;53.224;6.554;2023-03-01T08:53:39;30.47;;;21.30;;
72895;SDS011;61036;53.224;6.554;2023-03-01T08:56:05;28.43;;;21.00;;
72895;SDS011;61036;53.224;6.554;2023-03-01T08:58:32;27.10;;;20.40;;
72895;SDS011;61036;53.224;6.554;2023-03-01T09:00:57;27.23;;;20.97;;
72895;SDS011;61036;53.224;6.554;2023-03-01T09:03:23;27.80;;;20.37;;
72895;SDS011;61036;53.224;6.554;2023-03-01T09:05:50;27.10;;;19.83;;
72895;SDS011;61036;53.224;6.554;2023-03-01T09:08:16;23.13;;;18.10;;
72895;SDS011;61036;53.224;6.554;2023-03-01T09:10:43;26.17;;;17.97;;
72895;SDS011;61036;53.224;6.554;2023-03-01T09:13:08;25.80;;;19.60;;
72895;SDS011;61036;53.224;6.554;2023-03-01T09:15:36;27.20;;;19.87;;
72895;SDS011;61036;53.224;6.554;2023-03-01T09:18:02;27.20;;;20.20;;
72895;SDS011;61036;53.224;6.554;2023-03-01T09:20:30;26.80;;;19.07;;
72895;SDS011;61036;53.224;6.554;2023-03-01T09:22:56;24.60;;;18.57;;
72895;SDS011;61036;53.224;6.554;2023-03-01T09:25:22;22.63;;;16.97;;
72895;SDS011;61036;53.224;6.554;2023-03-01T09:27:50;23.50;;;16.60;;
72895;SDS011;61036;53.224;6.554;2023-03-01T09:30:19;22.47;;;16.10;;
72895;SDS011;61036;53.224;6.554;2023-03-01T09:32:48;22.03;;;16.00;;
72895;SDS011;61036;53.224;6.554;2023-03-01T09:35:13;23.93;;;17.17;;
72895;SDS011;61036;53.224;6.554;2023-03-01T09:37:39;27.43;;;18.10;;
72895;SDS011;61036;53.224;6.554;2023-03-01T09:40:28;26.53;;;19.77;;
72895;SDS011;61036;53.224;6.554;2023-03-01T09:45:33;26.20;;;18.83;;
72895;SDS011;61036;53.224;6.554;2023-03-01T09:48:00;23.77;;;17.73;;
72895;SDS011;61036;53.224;6.554;2023-03-01T09:50:32;26.37;;;19.47;;
72895;SDS011;61036;53.224;6.554;2023-03-01T10:04:38;21.87;;;16.73;;
72895;SDS011;61036;53.224;6.554;2023-03-01T10:09:35;21.50;;;15.97;;
72895;SDS011;61036;53.224;6.554;2023-03-01T10:12:04;20.13;;;14.83;;
72895;SDS011;61036;53.224;6.554;2023-03-01T10:14:55;21.33;;;15.40;;
72895;SDS011;61036;53.224;6.554;2023-03-01T10:19:54;21.73;;;16.10;;
72895;SDS011;61036;53.224;6.554;2023-03-01T10:24:54;23.13;;;17.03;;
72895;SDS011;61036;53.224;6.554;2023-03-01T10:30:12;22.07;;;17.57;;
72895;SDS011;61036;53.224;6.554;2023-03-01T10:32:45;24.23;;;17.50;;
72895;SDS011;61036;53.224;6.554;2023-03-01T10:35:18;22.37;;;16.23;;
72895;SDS011;61036;53.224;6.554;2023-03-01T10:38:08;20.77;;;16.00;;
72895;SDS011;61036;53.224;6.554;2023-03-01T10:40:49;23.00;;;15.67;;
72895;SDS011;61036;53.224;6.554;2023-03-01T10:43:19;20.87;;;15.80;;
72895;SDS011;61036;53.224;6.554;2023-03-01T10:45:45;24.03;;;18.20;;
72895;SDS011;61036;53.224;6.554;2023-03-01T10:48:13;23.20;;;16.37;;
72895;SDS011;61036;53.224;6.554;2023-03-01T10:50:44;19.30;;;15.43;;
72895;SDS011;61036;53.224;6.554;2023-03-01T10:53:32;22.23;;;16.57;;
72895;SDS011;61036;53.224;6.554;2023-03-01T10:58:29;23.33;;;17.33;;
72895;SDS011;61036;53.224;6.554;2023-03-01T11:00:56;20.40;;;16.20;;
72895;SDS011;61036;53.224;6.554;2023-03-01T11:03:32;24.23;;;16.50;;
72895;SDS011;61036;53.224;6.554;2023-03-01T11:08:32;26.63;;;16.80;;
72895;SDS011;61036;53.224;6.554;2023-03-01T11:11:11;20.70;;;15.63;;
72895;SDS011;61036;53.224;6.554;2023-03-01T11:13:58;21.13;;;16.10;;
72895;SDS011;61036;53.224;6.554;2023-03-01T11:16:35;18.93;;;15.17;;
72895;SDS011;61036;53.224;6.554;2023-03-01T11:21:34;19.43;;;15.13;;
72895;SDS011;61036;53.224;6.554;2023-03-01T11:24:04;20.50;;;15.53;;
72895;SDS011;61036;53.224;6.554;2023-03-01T11:26:37;21.03;;;15.50;;
72895;SDS011;61036;53.224;6.554;2023-03-01T11:29:07;19.20;;;14.53;;
72895;SDS011;61036;53.224;6.554;2023-03-01T11:31:58;22.20;;;15.57;;
72895;SDS011;61036;53.224;6.554;2023-03-01T11:40:20;17.57;;;12.40;;
72895;SDS011;61036;53.224;6.554;2023-03-01T11:46:03;16.83;;;12.33;;
72895;SDS011;61036;53.224;6.554;2023-03-01T11:51:09;18.33;;;12.90;;
72895;SDS011;61036;53.224;6.554;2023-03-01T11:56:31;18.20;;;12.93;;
72895;SDS011;61036;53.224;6.554;2023-03-01T12:10:19;18.97;;;13.30;;
72895;SDS011;61036;53.224;6.554;2023-03-01T12:18:37;16.13;;;13.13;;
72895;SDS011;61036;53.224;6.554;2023-03-01T12:26:55;19.47;;;13.67;;
72895;SDS011;61036;53.224;6.554;2023-03-01T12:29:32;20.37;;;13.40;;
72895;SDS011;61036;53.224;6.554;2023-03-01T12:49:40;17.97;;;12.30;;
72895;SDS011;61036;53.224;6.554;2023-03-01T12:54:47;17.97;;;11.00;;
72895;SDS011;61036;53.224;6.554;2023-03-01T13:02:48;20.10;;;14.13;;
72895;SDS011;61036;53.224;6.554;2023-03-01T13:06:11;16.17;;;12.07;;
72895;SDS011;61036;53.224;6.554;2023-03-01T13:11:49;16.07;;;10.27;;
72895;SDS011;61036;53.224;6.554;2023-03-01T13:16:45;14.63;;;10.53;;
72895;SDS011;61036;53.224;6.554;2023-03-01T13:19:24;16.93;;;10.87;;
72895;SDS011;61036;53.224;6.554;2023-03-01T13:21:52;16.80;;;10.80;;
72895;SDS011;61036;53.224;6.554;2023-03-01T13:29:54;16.37;;;11.90;;
72895;SDS011;61036;53.224;6.554;2023-03-01T13:34:58;17.43;;;12.70;;
72895;SDS011;61036;53.224;6.554;2023-03-01T13:37:26;18.77;;;11.97;;
72895;SDS011;61036;53.224;6.554;2023-03-01T13:39:57;18.90;;;12.83;;
72895;SDS011;61036;53.224;6.554;2023-03-01T13:45:04;16.47;;;12.47;;
72895;SDS011;61036;53.224;6.554;2023-03-01T13:47:56;17.33;;;12.80;;
72895;SDS011;61036;53.224;6.554;2023-03-01T13:50:28;15.83;;;12.80;;
72895;SDS011;61036;53.224;6.554;2023-03-01T13:52:59;15.77;;;11.33;;
72895;SDS011;61036;53.224;6.554;2023-03-01T13:56:28;16.77;;;11.93;;
72895;SDS011;61036;53.224;6.554;2023-03-01T13:59:21;16.20;;;11.07;;
72895;SDS011;61036;53.224;6.554;2023-03-01T14:01:56;14.87;;;11.03;;
72895;SDS011;61036;53.224;6.554;2023-03-01T14:09:39;15.43;;;11.03;;
72895;SDS011;61036;53.224;6.554;2023-03-01T14:15:06;17.33;;;11.13;;
72895;SDS011;61036;53.224;6.554;2023-03-01T14:20:30;16.03;;;11.20;;
72895;SDS011;61036;53.224;6.554;2023-03-01T14:23:07;16.57;;;11.50;;
72895;SDS011;61036;53.224;6.554;2023-03-01T14:25:37;15.67;;;12.00;;
72895;SDS011;61036;53.224;6.554;2023-03-01T14:28:04;16.93;;;12.80;;
72895;SDS011;61036;53.224;6.554;2023-03-01T14:30:42;15.97;;;12.40;;
72895;SDS011;61036;53.224;6.554;2023-03-01T14:36:07;15.57;;;11.40;;
72895;SDS011;61036;53.224;6.554;2023-03-01T14:41:03;15.07;;;11.43;;
72895;SDS011;61036;53.224;6.554;2023-03-01T14:43:32;18.70;;;12.50;;
72895;SDS011;61036;53.224;6.554;2023-03-01T14:45:58;16.73;;;12.30;;
72895;SDS011;61036;53.224;6.554;2023-03-01T14:48:24;18.40;;;11.47;;
72895;SDS011;61036;53.224;6.554;2023-03-01T14:50:53;16.33;;;12.57;;
72895;SDS011;61036;53.224;6.554;2023-03-01T14:53:23;15.80;;;12.33;;
72895;SDS011;61036;53.224;6.554;2023-03-01T14:55:52;16.30;;;12.20;;
72895;SDS011;61036;53.224;6.554;2023-03-01T14:58:27;16.80;;;11.97;;
72895;SDS011;61036;53.224;6.554;2023-03-01T15:00:57;17.97;;;13.07;;
72895;SDS011;61036;53.224;6.554;2023-03-01T15:06:11;17.07;;;11.90;;
72895;SDS011;61036;53.224;6.554;2023-03-01T15:08:48;18.00;;;12.37;;
72895;SDS011;61036;53.224;6.554;2023-03-01T15:11:24;16.17;;;12.10;;
72895;SDS011;61036;53.224;6.554;2023-03-01T15:13:54;17.50;;;12.17;;
72895;SDS011;61036;53.224;6.554;2023-03-01T15:21:32;18.30;;;13.30;;
72895;SDS011;61036;53.224;6.554;2023-03-01T15:24:05;19.87;;;13.60;;
72895;SDS011;61036;53.224;6.554;2023-03-01T15:26:43;19.63;;;14.07;;
72895;SDS011;61036;53.224;6.554;2023-03-01T15:29:32;16.63;;;12.30;;
72895;SDS011;61036;53.224;6.554;2023-03-01T15:34:30;19.10;;;14.03;;
72895;SDS011;61036;53.224;6.554;2023-03-01T15:36:56;18.87;;;13.17;;
72895;SDS011;61036;53.224;6.554;2023-03-01T15:39:52;20.30;;;14.53;;
72895;SDS011;61036;53.224;6.554;2023-03-01T15:47:40;19.97;;;14.10;;
72895;SDS011;61036;53.224;6.554;2023-03-01T15:50:22;18.97;;;13.10;;
72895;SDS011;61036;53.224;6.554;2023-03-01T15:52:51;18.83;;;14.00;;
72895;SDS011;61036;53.224;6.554;2023-03-01T15:55:24;17.70;;;12.87;;
72895;SDS011;61036;53.224;6.554;2023-03-01T15:58:04;16.90;;;13.10;;
72895;SDS011;61036;53.224;6.554;2023-03-01T16:00:36;17.47;;;13.27;;
72895;SDS011;61036;53.224;6.554;2023-03-01T16:03:02;18.10;;;12.27;;
72895;SDS011;61036;53.224;6.554;2023-03-01T16:05:29;17.97;;;12.37;;
72895;SDS011;61036;53.224;6.554;2023-03-01T16:07:56;16.80;;;12.60;;
72895;SDS011;61036;53.224;6.554;2023-03-01T16:10:22;16.93;;;12.10;;
72895;SDS011;61036;53.224;6.554;2023-03-01T16:12:49;15.53;;;11.90;;
72895;SDS011;61036;53.224;6.554;2023-03-01T16:15:25;16.00;;;11.53;;
72895;SDS011;61036;53.224;6.554;2023-03-01T16:17:55;18.37;;;13.27;;
72895;SDS011;61036;53.224;6.554;2023-03-01T16:20:23;17.27;;;13.27;;
72895;SDS011;61036;53.224;6.554;2023-03-01T16:22:48;17.97;;;12.33;;
72895;SDS011;61036;53.224;6.554;2023-03-01T16:25:15;16.57;;;12.17;;
72895;SDS011;61036;53.224;6.554;2023-03-01T16:27:43;19.67;;;14.47;;
72895;SDS011;61036;53.224;6.554;2023-03-01T16:30:10;20.13;;;14.07;;
72895;SDS011;61036;53.224;6.554;2023-03-01T16:32:39;21.27;;;13.93;;
72895;SDS011;61036;53.224;6.554;2023-03-01T16:35:05;18.03;;;13.80;;
72895;SDS011;61036;53.224;6.554;2023-03-01T16:37:33;25.00;;;18.10;;
72895;SDS011;61036;53.224;6.554;2023-03-01T16:39:59;18.63;;;13.50;;
72895;SDS011;61036;53.224;6.554;2023-03-01T16:42:25;17.17;;;14.00;;
72895;SDS011;61036;53.224;6.554;2023-03-01T16:44:55;18.03;;;13.43;;
72895;SDS011;61036;53.224;6.554;2023-03-01T16:47:21;18.37;;;13.53;;
72895;SDS011;61036;53.224;6.554;2023-03-01T16:49:49;21.40;;;12.90;;
72895;SDS011;61036;53.224;6.554;2023-03-01T16:52:17;16.83;;;13.20;;
72895;SDS011;61036;53.224;6.554;2023-03-01T16:54:42;17.13;;;12.67;;
72895;SDS011;61036;53.224;6.554;2023-03-01T16:57:08;18.57;;;13.47;;
72895;SDS011;61036;53.224;6.554;2023-03-01T16:59:33;16.60;;;12.90;;
72895;SDS011;61036;53.224;6.554;2023-03-01T17:01:59;15.83;;;11.90;;
72895;SDS011;61036;53.224;6.554;2023-03-01T17:04:25;19.43;;;13.17;;
72895;SDS011;61036;53.224;6.554;2023-03-01T17:06:50;21.27;;;13.97;;